sensor_id;sensor_type;location;lat;lon;timestamp;pressure;altitude;pressure_sealevel;temperature;humidity
33189;BME280;52601;53.070;10.600;2023-02-15T00:01:11;102719.69;;;2.01;100.00
33189;BME280;52601;53.070;10.600;2023-02-15T00:03:57;102721.56;;;2.08;100.00
33189;BME280;52601;53.070;10.600;2023-02-15T00:06:43;102725.63;;;1.94;100.00
33189;BME280;52601;53.070;10.600;2023-02-15T00:09:28;102713.63;;;1.99;100.00
33189;BME280;52601;53.070;10.600;2023-02-15T00:12:15;102714.59;;;2.03;100.00
33189;BME280;52601;53.070;10.600;2023-02-15T00:15:01;102713.84;;;2.11;100.00
33189;BME280;52601;53.070;10.600;2023-02-15T00:17:46;102711.38;;;2.16;100.00
33189;BME280;52601;53.070;10.600;2023-02-15T00:20:32;102718.91;;;2.05;100.00
33189;BME280;52601;53.070;10.600;2023-02-15T00:23:17;102725.47;;;1.87;100.00
33189;BME280;52601;53.070;10.600;2023-02-15T00:26:04;102726.25;;;1.83;100.00
33189;BME280;52601;53.070;10.600;2023-02-15T00:28:50;102722.69;;;1.77;100.00
33189;BME280;52601;53.070;10.600;2023-02-15T00:31:36;102725.72;;;1.57;100.00
33189;BME280;52601;53.070;10.600;2023-02-15T00:34:24;102712.41;;;1.39;100.00
33189;BME280;52601;53.070;10.600;2023-02-15T00:37:09;102718.91;;;1.60;100.00
33189;BME280;52601;53.070;10.600;2023-02-15T00:39:55;102717.31;;;1.67;100.00
33189;BME280;52601;53.070;10.600;2023-02-15T00:42:41;102710.81;;;1.45;100.00
33189;BME280;52601;53.070;10.600;2023-02-15T00:45:26;102718.78;;;1.56;100.00
33189;BME280;52601;53.070;10.600;2023-02-15T00:48:11;102712.47;;;1.42;100.00
33189;BME280;52601;53.070;10.600;2023-02-15T00:50:58;102703.81;;;1.40;100.00
33189;BME280;52601;53.070;10.600;2023-02-15T00:53:44;102702.19;;;1.45;100.00
33189;BME280;52601;53.070;10.600;2023-02-15T00:56:30;102703.25;;;1.54;100.00
33189;BME280;52601;53.070;10.600;2023-02-15T00:59:15;102697.84;;;1.44;100.00
33189;BME280;52601;53.070;10.600;2023-02-15T01:02:01;102681.91;;;1.63;100.00
33189;BME280;52601;53.070;10.600;2023-02-15T01:04:46;102692.25;;;1.63;100.00
33189;BME280;52601;53.070;10.600;2023-02-15T01:07:32;102678.56;;;1.68;100.00
33189;BME280;52601;53.070;10.600;2023-02-15T01:10:18;102677.78;;;1.72;100.00
33189;BME280;52601;53.070;10.600;2023-02-15T01:13:04;102680.38;;;1.72;100.00
33189;BME280;52601;53.070;10.600;2023-02-15T01:15:54;102670.84;;;1.71;100.00
33189;BME280;52601;53.070;10.600;2023-02-15T01:18:39;102677.53;;;1.60;100.00
33189;BME280;52601;53.070;10.600;2023-02-15T01:21:26;102680.16;;;1.62;100.00
33189;BME280;52601;53.070;10.600;2023-02-15T01:24:13;102672.94;;;1.47;100.00
33189;BME280;52601;53.070;10.600;2023-02-15T01:26:58;102671.25;;;1.49;100.00
33189;BME280;52601;53.070;10.600;2023-02-15T01:29:43;102675.53;;;1.47;100.00
33189;BME280;52601;53.070;10.600;2023-02-15T01:32:29;102673.00;;;1.49;100.00
33189;BME280;52601;53.070;10.600;2023-02-15T01:35:14;102660.09;;;1.50;100.00
33189;BME280;52601;53.070;10.600;2023-02-15T01:38:00;102658.63;;;1.21;100.00
33189;BME280;52601;53.070;10.600;2023-02-15T01:40:45;102658.78;;;1.29;100.00
33189;BME280;52601;53.070;10.600;2023-02-15T01:43:47;102642.38;;;1.25;100.00
33189;BME280;52601;53.070;10.600;2023-02-15T01:46:38;102644.59;;;1.10;100.00
33189;BME280;52601;53.070;10.600;2023-02-15T01:49:26;102641.84;;;1.01;100.00
33189;BME280;52601;53.070;10.600;2023-02-15T01:52:15;102639.44;;;1.10;100.00
33189;BME280;52601;53.070;10.600;2023-02-15T01:55:01;102632.13;;;1.31;100.00
33189;BME280;52601;53.070;10.600;2023-02-15T01:57:47;102628.09;;;1.44;100.00
33189;BME280;52601;53.070;10.600;2023-02-15T02:00:33;102619.44;;;1.42;100.00
33189;BME280;52601;53.070;10.600;2023-02-15T02:03:30;102618.59;;;1.43;100.00
33189;BME280;52601;53.070;10.600;2023-02-15T02:06:21;102632.22;;;1.34;100.00
33189;BME280;52601;53.070;10.600;2023-02-15T02:09:09;102630.13;;;1.17;100.00
33189;BME280;52601;53.070;10.600;2023-02-15T02:11:55;102610.88;;;1.03;100.00
33189;BME280;52601;53.070;10.600;2023-02-15T02:14:42;102618.63;;;1.03;100.00
33189;BME280;52601;53.070;10.600;2023-02-15T02:21:07;102635.47;;;1.26;100.00
33189;BME280;52601;53.070;10.600;2023-02-15T02:24:22;102627.38;;;1.09;100.00
33189;BME280;52601;53.070;10.600;2023-02-15T02:27:21;102613.31;;;0.95;100.00
33189;BME280;52601;53.070;10.600;2023-02-15T02:33:27;102624.94;;;1.17;100.00
33189;BME280;52601;53.070;10.600;2023-02-15T02:36:27;102624.94;;;1.15;100.00
33189;BME280;52601;53.070;10.600;2023-02-15T02:42:49;102621.03;;;0.95;100.00
33189;BME280;52601;53.070;10.600;2023-02-15T02:45:44;102610.72;;;0.95;100.00
33189;BME280;52601;53.070;10.600;2023-02-15T02:48:33;102610.78;;;1.00;100.00
33189;BME280;52601;53.070;10.600;2023-02-15T02:51:18;102600.66;;;0.70;100.00
33189;BME280;52601;53.070;10.600;2023-02-15T02:54:06;102602.00;;;0.53;100.00
33189;BME280;52601;53.070;10.600;2023-02-15T02:56:53;102595.00;;;0.47;100.00
33189;BME280;52601;53.070;10.600;2023-02-15T02:59:46;102592.78;;;0.64;100.00
33189;BME280;52601;53.070;10.600;2023-02-15T03:02:36;102579.63;;;0.91;100.00
33189;BME280;52601;53.070;10.600;2023-02-15T03:05:26;102589.06;;;0.88;100.00
33189;BME280;52601;53.070;10.600;2023-02-15T03:08:14;102583.91;;;0.90;100.00
33189;BME280;52601;53.070;10.600;2023-02-15T03:11:06;102577.63;;;0.77;100.00
33189;BME280;52601;53.070;10.600;2023-02-15T03:13:52;102590.88;;;0.94;100.00
33189;BME280;52601;53.070;10.600;2023-02-15T03:16:40;102574.34;;;0.86;100.00
33189;BME280;52601;53.070;10.600;2023-02-15T03:19:30;102566.47;;;0.78;100.00
33189;BME280;52601;53.070;10.600;2023-02-15T03:25:19;102569.13;;;0.81;100.00
33189;BME280;52601;53.070;10.600;2023-02-15T03:28:09;102573.44;;;0.84;100.00
33189;BME280;52601;53.070;10.600;2023-02-15T03:30:59;102561.38;;;0.81;100.00
33189;BME280;52601;53.070;10.600;2023-02-15T03:34:00;102563.06;;;0.79;100.00
33189;BME280;52601;53.070;10.600;2023-02-15T03:36:55;102564.66;;;0.74;100.00
33189;BME280;52601;53.070;10.600;2023-02-15T03:40:03;102566.03;;;0.59;100.00
33189;BME280;52601;53.070;10.600;2023-02-15T03:45:59;102566.84;;;0.58;100.00
33189;BME280;52601;53.070;10.600;2023-02-15T03:48:53;102558.06;;;0.50;100.00
33189;BME280;52601;53.070;10.600;2023-02-15T03:51:42;102555.53;;;0.51;100.00
33189;BME280;52601;53.070;10.600;2023-02-15T03:54:31;102548.31;;;0.37;100.00
33189;BME280;52601;53.070;10.600;2023-02-15T03:57:28;102531.78;;;0.29;100.00
33189;BME280;52601;53.070;10.600;2023-02-15T04:00:58;102553.31;;;0.29;100.00
33189;BME280;52601;53.070;10.600;2023-02-15T04:04:14;102554.75;;;0.18;100.00
33189;BME280;52601;53.070;10.600;2023-02-15T04:07:04;102561.56;;;0.16;100.00
33189;BME280;52601;53.070;10.600;2023-02-15T04:09:50;102553.94;;;0.21;100.00
33189;BME280;52601;53.070;10.600;2023-02-15T04:12:54;102555.59;;;0.17;100.00
33189;BME280;52601;53.070;10.600;2023-02-15T04:15:41;102549.97;;;0.33;100.00
33189;BME280;52601;53.070;10.600;2023-02-15T04:18:45;102550.16;;;0.07;100.00
33189;BME280;52601;53.070;10.600;2023-02-15T04:21:50;102546.03;;;0.13;100.00
33189;BME280;52601;53.070;10.600;2023-02-15T04:24:54;102548.88;;;0.24;100.00
33189;BME280;52601;53.070;10.600;2023-02-15T04:27:54;102547.50;;;0.38;100.00
33189;BME280;52601;53.070;10.600;2023-02-15T04:30:40;102544.19;;;0.43;100.00
33189;BME280;52601;53.070;10.600;2023-02-15T04:33:25;102542.53;;;0.47;100.00
33189;BME280;52601;53.070;10.600;2023-02-15T04:36:10;102547.81;;;0.53;100.00
33189;BME280;52601;53.070;10.600;2023-02-15T04:38:56;102547.16;;;0.61;100.00
33189;BME280;52601;53.070;10.600;2023-02-15T04:41:41;102537.50;;;0.53;100.00
33189;BME280;52601;53.070;10.600;2023-02-15T04:44:27;102543.84;;;0.67;100.00
33189;BME280;52601;53.070;10.600;2023-02-15T04:47:12;102540.78;;;0.84;100.00
33189;BME280;52601;53.070;10.600;2023-02-15T04:49:58;102539.63;;;0.72;100.00
33189;BME280;52601;53.070;10.600;2023-02-15T04:52:43;102525.69;;;0.64;100.00
33189;BME280;52601;53.070;10.600;2023-02-15T04:55:28;102524.88;;;0.65;100.00
33189;BME280;52601;53.070;10.600;2023-02-15T04:58:14;102527.88;;;0.86;100.00
33189;BME280;52601;53.070;10.600;2023-02-15T05:00:59;102527.22;;;0.95;100.00
33189;BME280;52601;53.070;10.600;2023-02-15T05:03:45;102506.16;;;0.75;100.00
33189;BME280;52601;53.070;10.600;2023-02-15T05:06:31;102505.50;;;0.85;100.00
33189;BME280;52601;53.070;10.600;2023-02-15T05:09:16;102510.75;;;0.89;100.00
33189;BME280;52601;53.070;10.600;2023-02-15T05:12:02;102498.72;;;0.90;100.00
33189;BME280;52601;53.070;10.600;2023-02-15T05:14:48;102507.47;;;0.98;100.00
33189;BME280;52601;53.070;10.600;2023-02-15T05:17:33;102492.84;;;0.97;100.00
33189;BME280;52601;53.070;10.600;2023-02-15T05:20:19;102487.38;;;0.82;100.00
33189;BME280;52601;53.070;10.600;2023-02-15T05:23:04;102491.75;;;0.86;100.00
33189;BME280;52601;53.070;10.600;2023-02-15T05:25:50;102493.69;;;0.98;100.00
33189;BME280;52601;53.070;10.600;2023-02-15T05:28:54;102485.25;;;1.05;100.00
33189;BME280;52601;53.070;10.600;2023-02-15T05:31:40;102492.25;;;1.12;100.00
33189;BME280;52601;53.070;10.600;2023-02-15T05:34:26;102506.72;;;1.04;100.00
33189;BME280;52601;53.070;10.600;2023-02-15T05:37:11;102493.13;;;1.11;100.00
33189;BME280;52601;53.070;10.600;2023-02-15T05:39:57;102507.84;;;1.16;100.00
33189;BME280;52601;53.070;10.600;2023-02-15T05:42:43;102504.34;;;1.13;100.00
33189;BME280;52601;53.070;10.600;2023-02-15T05:45:28;102500.84;;;1.11;100.00
33189;BME280;52601;53.070;10.600;2023-02-15T05:48:14;102505.41;;;0.80;100.00
33189;BME280;52601;53.070;10.600;2023-02-15T05:51:05;102508.38;;;0.99;100.00
33189;BME280;52601;53.070;10.600;2023-02-15T05:53:51;102511.56;;;0.87;100.00
33189;BME280;52601;53.070;10.600;2023-02-15T05:56:37;102503.31;;;1.05;100.00
33189;BME280;52601;53.070;10.600;2023-02-15T05:59:22;102492.47;;;1.24;100.00
33189;BME280;52601;53.070;10.600;2023-02-15T06:02:08;102490.75;;;1.21;100.00
33189;BME280;52601;53.070;10.600;2023-02-15T06:04:53;102479.22;;;1.06;100.00
33189;BME280;52601;53.070;10.600;2023-02-15T06:07:39;102490.56;;;1.14;100.00
33189;BME280;52601;53.070;10.600;2023-02-15T06:10:24;102480.19;;;1.09;100.00
33189;BME280;52601;53.070;10.600;2023-02-15T06:13:10;102486.94;;;1.04;100.00
33189;BME280;52601;53.070;10.600;2023-02-15T06:15:56;102483.69;;;1.14;100.00
33189;BME280;52601;53.070;10.600;2023-02-15T06:18:41;102482.34;;;1.34;100.00
33189;BME280;52601;53.070;10.600;2023-02-15T06:21:27;102479.66;;;1.28;100.00
33189;BME280;52601;53.070;10.600;2023-02-15T06:24:12;102484.13;;;1.37;100.00
33189;BME280;52601;53.070;10.600;2023-02-15T06:26:58;102477.84;;;1.23;100.00
33189;BME280;52601;53.070;10.600;2023-02-15T06:29:43;102470.22;;;1.30;100.00
33189;BME280;52601;53.070;10.600;2023-02-15T06:32:29;102472.44;;;1.09;100.00
33189;BME280;52601;53.070;10.600;2023-02-15T06:35:15;102477.41;;;1.00;100.00
33189;BME280;52601;53.070;10.600;2023-02-15T06:38:00;102478.19;;;0.98;100.00
33189;BME280;52601;53.070;10.600;2023-02-15T06:40:46;102493.91;;;1.08;100.00
33189;BME280;52601;53.070;10.600;2023-02-15T06:43:32;102485.38;;;1.11;100.00
33189;BME280;52601;53.070;10.600;2023-02-15T06:46:19;102486.31;;;1.16;100.00
33189;BME280;52601;53.070;10.600;2023-02-15T06:49:05;102485.47;;;1.15;100.00
33189;BME280;52601;53.070;10.600;2023-02-15T06:51:50;102491.47;;;1.16;100.00
33189;BME280;52601;53.070;10.600;2023-02-15T06:54:36;102487.84;;;1.06;100.00
33189;BME280;52601;53.070;10.600;2023-02-15T06:57:21;102488.03;;;1.15;100.00
33189;BME280;52601;53.070;10.600;2023-02-15T07:00:07;102486.25;;;1.11;100.00
33189;BME280;52601;53.070;10.600;2023-02-15T07:02:54;102484.56;;;1.15;100.00
33189;BME280;52601;53.070;10.600;2023-02-15T07:05:43;102492.13;;;1.04;100.00
33189;BME280;52601;53.070;10.600;2023-02-15T07:08:28;102475.59;;;0.96;100.00
33189;BME280;52601;53.070;10.600;2023-02-15T07:11:14;102473.00;;;0.95;100.00
33189;BME280;52601;53.070;10.600;2023-02-15T07:14:18;102485.22;;;1.03;100.00
33189;BME280;52601;53.070;10.600;2023-02-15T07:17:04;102483.41;;;0.99;100.00
33189;BME280;52601;53.070;10.600;2023-02-15T07:19:59;102489.84;;;1.19;100.00
33189;BME280;52601;53.070;10.600;2023-02-15T07:22:45;102481.25;;;1.22;100.00
33189;BME280;52601;53.070;10.600;2023-02-15T07:25:30;102485.56;;;1.21;100.00
33189;BME280;52601;53.070;10.600;2023-02-15T07:28:16;102483.13;;;1.30;100.00
33189;BME280;52601;53.070;10.600;2023-02-15T07:31:03;102479.41;;;1.15;100.00
33189;BME280;52601;53.070;10.600;2023-02-15T07:33:49;102461.25;;;1.10;100.00
33189;BME280;52601;53.070;10.600;2023-02-15T07:36:34;102472.50;;;1.14;100.00
33189;BME280;52601;53.070;10.600;2023-02-15T07:39:20;102465.63;;;1.14;100.00
33189;BME280;52601;53.070;10.600;2023-02-15T07:42:05;102458.78;;;1.18;100.00
33189;BME280;52601;53.070;10.600;2023-02-15T07:44:50;102462.13;;;1.12;100.00
33189;BME280;52601;53.070;10.600;2023-02-15T07:47:38;102459.31;;;1.46;100.00
33189;BME280;52601;53.070;10.600;2023-02-15T07:50:23;102456.72;;;1.46;100.00
33189;BME280;52601;53.070;10.600;2023-02-15T07:53:09;102446.38;;;1.45;100.00
33189;BME280;52601;53.070;10.600;2023-02-15T07:55:58;102436.06;;;1.48;100.00
33189;BME280;52601;53.070;10.600;2023-02-15T07:58:44;102446.50;;;1.54;100.00
33189;BME280;52601;53.070;10.600;2023-02-15T08:01:39;102447.28;;;1.48;100.00
33189;BME280;52601;53.070;10.600;2023-02-15T08:04:24;102439.44;;;1.44;100.00
33189;BME280;52601;53.070;10.600;2023-02-15T08:07:09;102444.91;;;1.60;100.00
33189;BME280;52601;53.070;10.600;2023-02-15T08:09:55;102440.44;;;1.50;100.00
33189;BME280;52601;53.070;10.600;2023-02-15T08:12:41;102425.75;;;1.48;100.00
33189;BME280;52601;53.070;10.600;2023-02-15T08:15:26;102423.84;;;1.92;100.00
33189;BME280;52601;53.070;10.600;2023-02-15T08:18:12;102423.66;;;1.78;100.00
33189;BME280;52601;53.070;10.600;2023-02-15T08:20:58;102409.94;;;1.85;100.00
33189;BME280;52601;53.070;10.600;2023-02-15T08:23:43;102412.06;;;2.10;100.00
33189;BME280;52601;53.070;10.600;2023-02-15T08:26:29;102439.63;;;2.08;100.00
33189;BME280;52601;53.070;10.600;2023-02-15T08:29:17;102437.22;;;2.20;100.00
33189;BME280;52601;53.070;10.600;2023-02-15T08:32:08;102426.06;;;2.26;100.00
33189;BME280;52601;53.070;10.600;2023-02-15T08:34:54;102423.41;;;2.23;100.00
33189;BME280;52601;53.070;10.600;2023-02-15T08:37:40;102421.72;;;2.25;100.00
33189;BME280;52601;53.070;10.600;2023-02-15T08:40:25;102432.22;;;2.37;100.00
33189;BME280;52601;53.070;10.600;2023-02-15T08:43:11;102439.44;;;1.98;100.00
33189;BME280;52601;53.070;10.600;2023-02-15T08:45:56;102422.91;;;1.87;100.00
33189;BME280;52601;53.070;10.600;2023-02-15T08:48:43;102406.72;;;2.00;100.00
33189;BME280;52601;53.070;10.600;2023-02-15T08:51:31;102421.69;;;2.22;100.00
33189;BME280;52601;53.070;10.600;2023-02-15T08:54:20;102416.00;;;2.48;100.00
33189;BME280;52601;53.070;10.600;2023-02-15T08:57:05;102403.97;;;2.52;100.00
33189;BME280;52601;53.070;10.600;2023-02-15T08:59:52;102406.78;;;2.73;100.00
33189;BME280;52601;53.070;10.600;2023-02-15T09:02:40;102401.53;;;2.67;100.00
33189;BME280;52601;53.070;10.600;2023-02-15T09:05:25;102391.91;;;2.52;100.00
33189;BME280;52601;53.070;10.600;2023-02-15T09:08:11;102402.22;;;2.49;100.00
33189;BME280;52601;53.070;10.600;2023-02-15T09:13:59;102404.88;;;2.55;100.00
33189;BME280;52601;53.070;10.600;2023-02-15T09:16:46;102411.16;;;2.79;100.00
33189;BME280;52601;53.070;10.600;2023-02-15T09:19:34;102401.66;;;2.76;100.00
33189;BME280;52601;53.070;10.600;2023-02-15T09:22:19;102395.59;;;2.74;100.00
33189;BME280;52601;53.070;10.600;2023-02-15T09:25:05;102400.16;;;2.96;100.00
33189;BME280;52601;53.070;10.600;2023-02-15T09:27:51;102400.16;;;2.98;100.00
33189;BME280;52601;53.070;10.600;2023-02-15T09:30:36;102409.72;;;3.05;100.00
33189;BME280;52601;53.070;10.600;2023-02-15T09:33:22;102405.66;;;3.31;100.00
33189;BME280;52601;53.070;10.600;2023-02-15T09:36:24;102397.72;;;3.14;100.00
33189;BME280;52601;53.070;10.600;2023-02-15T09:39:24;102393.00;;;3.70;100.00
33189;BME280;52601;53.070;10.600;2023-02-15T09:48:22;102399.75;;;3.48;100.00
33189;BME280;52601;53.070;10.600;2023-02-15T09:51:32;102380.66;;;3.40;100.00
33189;BME280;52601;53.070;10.600;2023-02-15T09:54:55;102400.63;;;3.47;100.00
33189;BME280;52601;53.070;10.600;2023-02-15T10:00:46;102417.16;;;3.63;100.00
33189;BME280;52601;53.070;10.600;2023-02-15T10:03:43;102402.66;;;3.94;100.00
33189;BME280;52601;53.070;10.600;2023-02-15T10:06:35;102400.22;;;4.16;100.00
33189;BME280;52601;53.070;10.600;2023-02-15T10:09:35;102400.22;;;4.15;100.00
33189;BME280;52601;53.070;10.600;2023-02-15T10:28:11;102389.91;;;4.37;100.00
33189;BME280;52601;53.070;10.600;2023-02-15T10:34:19;102381.34;;;4.57;100.00
33189;BME280;52601;53.070;10.600;2023-02-15T10:37:36;102386.66;;;5.15;100.00
33189;BME280;52601;53.070;10.600;2023-02-15T10:40:48;102379.72;;;5.25;100.00
33189;BME280;52601;53.070;10.600;2023-02-15T10:50:09;102367.59;;;5.54;100.00
33189;BME280;52601;53.070;10.600;2023-02-15T10:56:23;102376.28;;;5.40;100.00
33189;BME280;52601;53.070;10.600;2023-02-15T10:59:30;102370.19;;;5.90;100.00
33189;BME280;52601;53.070;10.600;2023-02-15T11:05:54;102356.28;;;5.73;99.78
33189;BME280;52601;53.070;10.600;2023-02-15T11:08:52;102361.38;;;6.28;100.00
33189;BME280;52601;53.070;10.600;2023-02-15T11:11:40;102358.75;;;6.31;96.97
33189;BME280;52601;53.070;10.600;2023-02-15T11:14:35;102353.56;;;6.32;97.47
33189;BME280;52601;53.070;10.600;2023-02-15T11:17:33;102351.66;;;6.61;97.14
33189;BME280;52601;53.070;10.600;2023-02-15T11:20:29;102352.66;;;6.42;98.20
33189;BME280;52601;53.070;10.600;2023-02-15T11:23:17;102350.03;;;6.42;98.89
33189;BME280;52601;53.070;10.600;2023-02-15T11:26:08;102342.66;;;7.06;94.94
33189;BME280;52601;53.070;10.600;2023-02-15T11:29:00;102340.94;;;7.02;95.52
33189;BME280;52601;53.070;10.600;2023-02-15T11:31:54;102342.13;;;6.62;98.85
33189;BME280;52601;53.070;10.600;2023-02-15T11:34:50;102336.69;;;6.93;97.95
33189;BME280;52601;53.070;10.600;2023-02-15T11:40:30;102329.06;;;6.63;98.17
33189;BME280;52601;53.070;10.600;2023-02-15T11:43:41;102322.28;;;6.32;100.00
33189;BME280;52601;53.070;10.600;2023-02-15T11:46:27;102318.34;;;7.06;100.00
33189;BME280;52601;53.070;10.600;2023-02-15T11:49:35;102296.91;;;7.64;95.83
33189;BME280;52601;53.070;10.600;2023-02-15T11:52:20;102302.13;;;7.64;94.54
33189;BME280;52601;53.070;10.600;2023-02-15T11:55:12;102314.81;;;7.11;95.43
33189;BME280;52601;53.070;10.600;2023-02-15T12:01:15;102298.94;;;7.37;99.73
33189;BME280;52601;53.070;10.600;2023-02-15T12:07:23;102295.31;;;7.53;98.15
33189;BME280;52601;53.070;10.600;2023-02-15T12:10:22;102291.53;;;7.78;95.84
33189;BME280;52601;53.070;10.600;2023-02-15T12:13:17;102289.03;;;7.69;98.86
33189;BME280;52601;53.070;10.600;2023-02-15T12:16:07;102289.47;;;8.04;96.32
33189;BME280;52601;53.070;10.600;2023-02-15T12:19:00;102286.44;;;8.40;96.49
33189;BME280;52601;53.070;10.600;2023-02-15T12:21:49;102279.59;;;8.30;93.91
33189;BME280;52601;53.070;10.600;2023-02-15T12:24:45;102279.38;;;8.45;93.06
33189;BME280;52601;53.070;10.600;2023-02-15T12:27:34;102263.22;;;10.17;87.39
33189;BME280;52601;53.070;10.600;2023-02-15T12:30:30;102255.97;;;12.55;75.96
33189;BME280;52601;53.070;10.600;2023-02-15T12:33:34;102251.22;;;14.82;67.06
33189;BME280;52601;53.070;10.600;2023-02-15T12:36:21;102255.66;;;16.21;61.83
33189;BME280;52601;53.070;10.600;2023-02-15T12:42:02;102245.25;;;19.59;54.51
33189;BME280;52601;53.070;10.600;2023-02-15T12:44:59;102240.69;;;20.31;50.69
33189;BME280;52601;53.070;10.600;2023-02-15T12:47:45;102238.13;;;20.83;49.89
33189;BME280;52601;53.070;10.600;2023-02-15T12:50:31;102217.19;;;23.11;46.32
33189;BME280;52601;53.070;10.600;2023-02-15T12:53:31;102228.00;;;22.39;45.76
33189;BME280;52601;53.070;10.600;2023-02-15T12:56:26;102220.00;;;19.22;50.03
33189;BME280;52601;53.070;10.600;2023-02-15T12:59:14;102219.16;;;20.34;48.78
33189;BME280;52601;53.070;10.600;2023-02-15T13:02:21;102197.69;;;21.79;47.81
33189;BME280;52601;53.070;10.600;2023-02-15T13:05:31;102203.59;;;22.44;45.97
33189;BME280;52601;53.070;10.600;2023-02-15T13:08:22;102191.16;;;21.70;46.25
33189;BME280;52601;53.070;10.600;2023-02-15T13:11:12;102185.91;;;24.45;43.29
33189;BME280;52601;53.070;10.600;2023-02-15T13:14:32;102198.81;;;22.12;45.20
33189;BME280;52601;53.070;10.600;2023-02-15T13:17:23;102196.78;;;19.82;48.73
33189;BME280;52601;53.070;10.600;2023-02-15T13:20:22;102183.34;;;21.92;47.18
33189;BME280;52601;53.070;10.600;2023-02-15T13:23:29;102170.78;;;21.19;48.33
33189;BME280;52601;53.070;10.600;2023-02-15T13:26:19;102161.91;;;22.41;45.49
33189;BME280;52601;53.070;10.600;2023-02-15T13:29:10;102171.72;;;20.66;50.46
33189;BME280;52601;53.070;10.600;2023-02-15T13:32:07;102159.59;;;22.95;45.30
33189;BME280;52601;53.070;10.600;2023-02-15T13:35:00;102156.56;;;21.06;49.35
33189;BME280;52601;53.070;10.600;2023-02-15T13:40:46;102153.34;;;21.76;48.79
33189;BME280;52601;53.070;10.600;2023-02-15T13:43:55;102159.66;;;23.28;45.07
33189;BME280;52601;53.070;10.600;2023-02-15T13:47:07;102156.09;;;24.91;41.84
33189;BME280;52601;53.070;10.600;2023-02-15T13:53:21;102153.50;;;22.58;44.05
33189;BME280;52601;53.070;10.600;2023-02-15T13:59:33;102145.56;;;21.48;46.86
33189;BME280;52601;53.070;10.600;2023-02-15T14:05:48;102143.91;;;19.76;51.03
33189;BME280;52601;53.070;10.600;2023-02-15T14:12:16;102132.69;;;21.29;49.67
33189;BME280;52601;53.070;10.600;2023-02-15T14:15:33;102140.44;;;20.02;51.16
33189;BME280;52601;53.070;10.600;2023-02-15T14:28:10;102130.78;;;15.57;63.53
33189;BME280;52601;53.070;10.600;2023-02-15T14:30:57;102123.56;;;15.98;62.81
33189;BME280;52601;53.070;10.600;2023-02-15T14:33:53;102121.69;;;15.24;64.68
33189;BME280;52601;53.070;10.600;2023-02-15T14:36:40;102118.56;;;14.96;67.80
33189;BME280;52601;53.070;10.600;2023-02-15T14:42:57;102118.75;;;15.87;64.49
33189;BME280;52601;53.070;10.600;2023-02-15T14:45:52;102115.84;;;15.56;65.72
33189;BME280;52601;53.070;10.600;2023-02-15T14:48:47;102113.09;;;15.95;64.58
33189;BME280;52601;53.070;10.600;2023-02-15T14:59:59;102118.63;;;13.89;72.67
33189;BME280;52601;53.070;10.600;2023-02-15T15:02:50;102127.16;;;12.77;78.20
33189;BME280;52601;53.070;10.600;2023-02-15T15:05:47;102127.72;;;12.86;78.68
33189;BME280;52601;53.070;10.600;2023-02-15T15:08:37;102125.16;;;13.10;77.50
33189;BME280;52601;53.070;10.600;2023-02-15T15:26:31;102126.72;;;11.24;90.59
33189;BME280;52601;53.070;10.600;2023-02-15T15:29:39;102115.53;;;10.87;92.50
33189;BME280;52601;53.070;10.600;2023-02-15T15:32:27;102115.69;;;10.81;92.91
33189;BME280;52601;53.070;10.600;2023-02-15T15:39:05;102116.69;;;10.76;93.58
33189;BME280;52601;53.070;10.600;2023-02-15T15:48:32;102122.88;;;10.39;96.31
33189;BME280;52601;53.070;10.600;2023-02-15T15:51:21;102114.34;;;10.31;95.15
33189;BME280;52601;53.070;10.600;2023-02-15T15:54:17;102111.34;;;10.11;95.52
33189;BME280;52601;53.070;10.600;2023-02-15T15:57:04;102119.53;;;9.95;96.07
33189;BME280;52601;53.070;10.600;2023-02-15T15:59:51;102118.81;;;9.90;97.45
33189;BME280;52601;53.070;10.600;2023-02-15T16:02:52;102111.94;;;9.44;99.93
33189;BME280;52601;53.070;10.600;2023-02-15T16:05:38;102119.88;;;8.99;100.00
33189;BME280;52601;53.070;10.600;2023-02-15T16:08:29;102116.75;;;8.79;100.00
33189;BME280;52601;53.070;10.600;2023-02-15T16:11:24;102112.56;;;8.67;100.00
33189;BME280;52601;53.070;10.600;2023-02-15T16:14:13;102125.22;;;8.42;100.00
33189;BME280;52601;53.070;10.600;2023-02-15T16:17:02;102111.47;;;8.33;100.00
33189;BME280;52601;53.070;10.600;2023-02-15T16:19:50;102115.13;;;8.18;100.00
33189;BME280;52601;53.070;10.600;2023-02-15T16:22:38;102108.66;;;7.85;100.00
33189;BME280;52601;53.070;10.600;2023-02-15T16:25:34;102118.16;;;7.91;100.00
33189;BME280;52601;53.070;10.600;2023-02-15T16:28:23;102113.03;;;7.85;100.00
33189;BME280;52601;53.070;10.600;2023-02-15T16:31:14;102114.91;;;7.77;100.00
33189;BME280;52601;53.070;10.600;2023-02-15T16:34:14;102115.13;;;7.60;100.00
33189;BME280;52601;53.070;10.600;2023-02-15T16:37:12;102102.25;;;7.47;100.00
33189;BME280;52601;53.070;10.600;2023-02-15T16:39:58;102110.09;;;7.44;100.00
33189;BME280;52601;53.070;10.600;2023-02-15T16:42:43;102099.81;;;7.32;100.00
33189;BME280;52601;53.070;10.600;2023-02-15T16:45:30;102097.28;;;7.27;100.00
33189;BME280;52601;53.070;10.600;2023-02-15T16:48:21;102089.38;;;7.33;100.00
33189;BME280;52601;53.070;10.600;2023-02-15T16:51:07;102106.00;;;7.28;100.00
33189;BME280;52601;53.070;10.600;2023-02-15T16:53:55;102089.00;;;6.92;100.00
33189;BME280;52601;53.070;10.600;2023-02-15T16:56:43;102103.03;;;6.82;100.00